Time;durP1;ratioP1;P1;durP2;ratioP2;P2;SDS_P1;SDS_P2;PMS_P1;PMS_P2;Temp;Humidity;BMP_temperature;BMP_pressure;BME280_temperature;BME280_humidity;BME280_pressure;Samples;Min_cycle;Max_cycle;Signal;HPM_P1;HPM_P2
2022/05/05 00:01:54;;;;;;;18.00;8.90;;;;;;;34.38;44.64;100977.06;6127708;23;20441;-73
2022/05/05 00:04:22;;;;;;;15.47;9.70;;;;;;;34.66;43.81;100978.22;6127875;23;20376;-72
2022/05/05 00:06:51;;;;;;;13.73;10.17;;;;;;;34.72;43.71;100966.34;6128005;23;20439;-72
2022/05/05 00:09:17;;;;;;;15.13;10.60;;;;;;;34.73;44.02;100964.44;6127911;23;20384;-72
2022/05/05 00:14:27;;;;;;;14.90;9.57;;;;;;;34.58;44.08;100965.38;6154161;23;20852;-72
2022/05/05 00:17:07;;;;;;;14.57;8.80;;;;;;;34.77;43.79;100965.50;6154292;23;20357;-72
2022/05/05 00:19:36;;;;;;;17.63;9.80;;;;;;;34.79;43.70;100966.00;6128029;23;20392;-73
2022/05/05 00:22:04;;;;;;;13.70;8.70;;;;;;;34.67;44.10;100952.91;6127832;23;20428;-72
2022/05/05 00:24:31;;;;;;;18.00;8.43;;;;;;;34.69;43.93;100945.34;6129906;23;20384;-72
2022/05/05 00:26:57;;;;;;;12.50;9.00;;;;;;;34.56;44.23;100942.47;6129765;23;20857;-72
2022/05/05 00:29:24;;;;;;;13.00;8.60;;;;;;;34.50;44.45;100941.72;6129895;23;20396;-72
2022/05/05 00:31:50;;;;;;;16.00;10.00;;;;;;;33.93;45.70;100954.66;6129934;23;20879;-74
2022/05/05 00:34:17;;;;;;;15.40;8.33;;;;;;;33.88;45.99;100951.16;6129727;23;20477;-72
2022/05/05 00:36:44;;;;;;;13.90;8.90;;;;;;;34.09;45.73;100951.91;6129890;23;20389;-72
2022/05/05 00:39:13;;;;;;;18.67;11.10;;;;;;;34.44;44.89;100929.38;6129888;23;20388;-71
2022/05/05 00:41:44;;;;;;;14.50;8.50;;;;;;;34.23;45.46;100931.34;6129528;23;20424;-72
2022/05/05 00:44:12;;;;;;;14.03;9.27;;;;;;;34.63;44.55;100937.59;6129899;23;20908;-72
2022/05/05 00:46:38;;;;;;;20.93;11.97;;;;;;;34.24;45.14;100929.47;6129900;23;20377;-72
2022/05/05 00:49:05;;;;;;;21.13;12.57;;;;;;;34.14;45.43;100931.16;6129626;23;20389;-73
2022/05/05 00:51:32;;;;;;;17.67;12.10;;;;;;;34.24;45.00;100934.84;6129803;23;20377;-72
2022/05/05 00:53:58;;;;;;;17.10;11.17;;;;;;;34.43;44.90;100933.13;6129673;23;20376;-72
2022/05/05 00:56:25;;;;;;;17.13;11.17;;;;;;;34.27;45.33;100940.50;6130165;23;20391;-74
2022/05/05 00:58:56;;;;;;;21.03;10.67;;;;;;;34.34;45.08;100937.50;6129719;23;20428;-72
2022/05/05 01:01:23;;;;;;;14.97;9.03;;;;;;;34.47;45.02;100935.00;6129274;23;20444;-72
2022/05/05 01:03:50;;;;;;;18.97;10.17;;;;;;;34.46;44.89;100930.69;6155920;23;20844;-72
2022/05/05 01:06:17;;;;;;;14.23;9.40;;;;;;;34.58;44.38;100932.25;6129529;23;20523;-72
2022/05/05 01:08:44;;;;;;;12.73;8.30;;;;;;;34.62;44.49;100941.34;6105641;23;20373;-72
2022/05/05 01:11:10;;;;;;;11.40;7.67;;;;;;;34.60;44.68;100941.63;6129482;23;20378;-72
2022/05/05 01:13:41;;;;;;;16.27;8.27;;;;;;;34.19;45.34;100938.38;6129588;23;20389;-72
2022/05/05 01:16:08;;;;;;;13.03;7.60;;;;;;;34.51;44.88;100924.47;6155805;23;20366;-72
2022/05/05 01:18:34;;;;;;;8.30;6.20;;;;;;;34.31;45.29;100932.66;6129411;23;20771;-72
2022/05/05 01:21:01;;;;;;;15.90;7.93;;;;;;;33.88;45.98;100930.44;6105166;23;20425;-72
2022/05/05 01:23:27;;;;;;;15.27;7.37;;;;;;;33.93;46.04;100922.38;6155596;23;20358;-72
2022/05/05 01:28:43;;;;;;;14.60;8.40;;;;;;;34.02;46.09;100913.72;6155599;23;20370;-72
2022/05/05 01:31:09;;;;;;;9.87;7.30;;;;;;;34.21;46.01;100917.38;6129483;23;20484;-72
2022/05/05 01:33:36;;;;;;;13.67;8.13;;;;;;;34.24;45.74;100910.63;6129116;23;20412;-72
2022/05/05 01:36:03;;;;;;;13.80;6.20;;;;;;;34.63;45.22;100907.97;6129442;23;20388;-72
2022/05/05 01:38:41;;;;;;;11.53;6.50;;;;;;;34.98;44.11;100909.53;6129110;23;20413;-74
2022/05/05 01:41:12;;;;;;;14.07;7.30;;;;;;;35.14;43.72;100907.50;6129257;23;20428;-73
2022/05/05 01:43:40;;;;;;;11.87;6.50;;;;;;;35.30;43.26;100911.66;6129325;23;20932;-72
2022/05/05 01:46:07;;;;;;;15.70;8.50;;;;;;;35.42;43.15;100895.91;6129278;23;20381;-74
2022/05/05 01:48:34;;;;;;;13.37;6.67;;;;;;;35.48;43.11;100905.56;6129184;23;20409;-74
2022/05/05 01:51:00;;;;;;;12.70;7.10;;;;;;;35.29;43.34;100910.03;6129173;23;20400;-74
2022/05/05 01:53:26;;;;;;;11.73;6.57;;;;;;;35.35;43.04;100908.88;6128945;23;20463;-73
2022/05/05 01:55:53;;;;;;;13.03;7.20;;;;;;;35.38;43.19;100892.13;6129350;23;20384;-74
2022/05/05 01:58:19;;;;;;;11.20;6.17;;;;;;;35.49;42.99;100899.06;6129024;23;20409;-73
2022/05/05 02:00:45;;;;;;;11.37;7.20;;;;;;;35.22;43.88;100906.88;6128776;23;20451;-72
2022/05/05 02:03:14;;;;;;;12.13;6.43;;;;;;;35.44;43.58;100901.81;6129087;23;20446;-72
2022/05/05 02:05:45;;;;;;;13.13;6.30;;;;;;;35.27;43.78;100902.22;6129098;23;20729;-72
2022/05/05 02:08:12;;;;;;;10.40;7.87;;;;;;;35.31;43.58;100902.47;6129046;23;20385;-72
2022/05/05 02:10:38;;;;;;;9.80;7.60;;;;;;;35.27;43.50;100907.63;6128991;23;20742;-72
2022/05/05 02:13:06;;;;;;;13.70;7.30;;;;;;;35.01;44.32;100903.59;6129077;23;20416;-72
2022/05/05 02:15:34;;;;;;;14.67;7.70;;;;;;;34.61;44.95;100910.09;6128700;23;20885;-72
2022/05/05 02:18:11;;;;;;;15.70;8.83;;;;;;;35.02;44.49;100912.47;6128839;23;20409;-72
2022/05/05 02:20:39;;;;;;;15.63;7.80;;;;;;;35.15;43.86;100914.50;6154963;23;20408;-74
2022/05/05 02:23:06;;;;;;;17.90;8.30;;;;;;;35.19;43.70;100915.56;6129071;23;20389;-73
2022/05/05 02:25:33;;;;;;;10.50;6.43;;;;;;;34.85;43.91;100916.38;6128654;23;20429;-71
2022/05/05 02:27:59;;;;;;;14.53;6.30;;;;;;;34.90;44.12;100913.63;6155137;23;20404;-73
2022/05/05 02:30:27;;;;;;;11.97;7.10;;;;;;;34.72;44.27;100917.03;6128623;23;20389;-73
2022/05/05 02:32:53;;;;;;;15.33;7.43;;;;;;;34.92;43.95;100919.56;6154734;23;20446;-72
2022/05/05 02:35:19;;;;;;;10.37;5.47;;;;;;;34.80;44.13;100927.19;6128792;23;20877;-73
2022/05/05 02:40:31;;;;;;;17.80;9.07;;;;;;;34.58;44.76;100926.84;6154768;23;20447;-73
2022/05/05 02:42:58;;;;;;;15.97;10.50;;;;;;;34.75;44.70;100927.25;6128661;23;20393;-72
2022/05/05 02:45:25;;;;;;;21.53;17.87;;;;;;;34.72;44.83;100928.59;6128087;23;20416;-72
2022/05/05 02:47:51;;;;;;;27.60;12.60;;;;;;;34.77;44.60;100935.84;6128692;23;20448;-72
2022/05/05 02:50:18;;;;;;;17.67;15.03;;;;;;;34.76;44.82;100942.34;6154923;23;20361;-72
2022/05/05 02:52:44;;;;;;;20.00;12.83;;;;;;;34.86;44.65;100947.63;6154878;23;20353;-73
2022/05/05 02:55:11;;;;;;;30.03;11.53;;;;;;;34.42;45.65;100939.59;6128359;23;20417;-72
2022/05/05 02:57:37;;;;;;;19.73;9.27;;;;;;;34.62;45.54;100944.88;6128493;23;20730;-74
2022/05/05 03:00:07;;;;;;;22.30;12.67;;;;;;;34.91;44.74;100952.16;6128010;23;20500;-72
2022/05/05 03:02:37;;;;;;;16.13;10.07;;;;;;;35.16;44.99;100953.84;6128484;23;20494;-72
2022/05/05 03:05:03;;;;;;;14.40;8.50;;;;;;;35.44;44.20;100955.75;6128588;23;20388;-74
2022/05/05 03:07:29;;;;;;;12.17;8.37;;;;;;;35.61;43.50;100954.50;6128388;23;20427;-74
2022/05/05 03:09:56;;;;;;;12.23;8.30;;;;;;;35.49;43.97;100946.81;6128487;23;20381;-74
2022/05/05 03:12:22;;;;;;;12.23;7.70;;;;;;;35.52;44.01;100954.31;6128441;23;20429;-73
2022/05/05 03:14:48;;;;;;;9.77;6.83;;;;;;;35.47;43.62;100949.78;6154675;23;20369;-74
2022/05/05 03:17:14;;;;;;;11.50;7.20;;;;;;;35.41;44.14;100950.09;6154598;23;20370;-72
2022/05/05 03:19:42;;;;;;;13.60;7.33;;;;;;;35.31;44.33;100951.03;6128085;23;20388;-72
2022/05/05 03:22:08;;;;;;;13.57;8.80;;;;;;;35.28;44.48;100949.69;6128454;23;20425;-72
2022/05/05 03:24:34;;;;;;;11.00;7.83;;;;;;;35.35;44.39;100940.44;6128306;23;20382;-72
2022/05/05 03:27:01;;;;;;;11.60;7.60;;;;;;;35.44;44.22;100944.97;6128392;23;20395;-72
2022/05/05 03:29:27;;;;;;;9.63;7.10;;;;;;;35.35;44.42;100952.03;6154581;23;20387;-72
2022/05/05 03:31:53;;;;;;;17.57;7.30;;;;;;;35.49;44.21;100946.81;6128401;23;20385;-72
2022/05/05 03:34:20;;;;;;;17.13;9.73;;;;;;;35.24;44.07;100948.66;6128200;23;20377;-72
2022/05/05 03:36:46;;;;;;;14.47;10.40;;;;;;;35.00;44.25;100948.63;6128103;23;20384;-72
2022/05/05 03:39:12;;;;;;;15.23;9.50;;;;;;;34.83;44.15;100945.50;6154357;23;20357;-72
2022/05/05 03:41:38;;;;;;;14.40;11.00;;;;;;;34.87;44.24;100941.16;6128157;23;20487;-72
2022/05/05 03:44:05;;;;;;;20.20;9.83;;;;;;;34.82;44.36;100943.91;6128189;23;20389;-72
2022/05/05 03:46:32;;;;;;;15.07;9.43;;;;;;;34.82;44.38;100943.91;6128360;23;21177;-74
2022/05/05 03:48:58;;;;;;;15.60;8.73;;;;;;;34.63;44.59;100953.75;6128115;23;20385;-72
2022/05/05 03:51:24;;;;;;;13.40;8.90;;;;;;;34.73;44.52;100949.06;6154402;23;20377;-72
2022/05/05 03:53:52;;;;;;;14.07;8.60;;;;;;;34.71;44.63;100955.84;6128167;23;20385;-73
2022/05/05 03:56:18;;;;;;;14.13;6.83;;;;;;;34.45;45.13;100955.22;6128027;23;20388;-72
2022/05/05 03:58:44;;;;;;;16.03;11.60;;;;;;;34.21;45.56;100963.16;6128106;23;20443;-72
2022/05/05 04:01:10;;;;;;;19.23;11.47;;;;;;;34.45;45.08;100955.22;6127711;23;20452;-73
2022/05/05 04:03:43;;;;;;;17.83;9.73;;;;;;;34.45;44.67;100947.94;6127986;23;20472;-73
2022/05/05 04:06:10;;;;;;;12.03;8.63;;;;;;;34.20;45.35;100958.84;6128104;23;20377;-72
2022/05/05 04:08:38;;;;;;;13.40;7.90;;;;;;;34.05;45.58;100961.59;6154342;23;20726;-72
2022/05/05 04:11:08;;;;;;;15.77;9.80;;;;;;;34.15;45.84;100958.88;6128063;23;20818;-72
2022/05/05 04:13:35;;;;;;;14.80;9.10;;;;;;;34.28;45.31;100952.88;6127776;23;20448;-73
2022/05/05 04:16:01;;;;;;;12.63;8.83;;;;;;;34.44;44.79;100959.81;6127727;23;20397;-73
2022/05/05 04:18:27;;;;;;;16.17;12.30;;;;;;;34.60;44.22;100973.16;6127838;23;20464;-72
2022/05/05 04:20:53;;;;;;;14.10;10.10;;;;;;;34.67;44.12;100977.13;6127960;23;20483;-74
2022/05/05 04:23:19;;;;;;;19.80;10.70;;;;;;;34.74;43.42;100974.13;6154544;23;20691;-72
2022/05/05 04:25:47;;;;;;;20.87;11.93;;;;;;;34.66;43.59;100980.94;6127982;23;20381;-72
2022/05/05 04:28:14;;;;;;;16.27;10.80;;;;;;;34.44;43.58;100985.94;6128012;23;20397;-72
2022/05/05 04:30:40;;;;;;;19.53;9.97;;;;;;;34.57;43.43;100984.50;6127988;23;20373;-72
2022/05/05 04:33:08;;;;;;;16.47;9.90;;;;;;;34.74;42.70;100979.50;6128057;23;20385;-73
2022/05/05 04:35:38;;;;;;;21.03;10.30;;;;;;;34.87;42.15;100989.69;6127890;23;20460;-72
2022/05/05 04:38:04;;;;;;;19.33;13.23;;;;;;;35.04;41.71;100985.78;6127964;23;20729;-74
2022/05/05 04:40:31;;;;;;;26.93;14.53;;;;;;;35.16;41.94;100994.31;6127910;23;20454;-72
2022/05/05 04:42:58;;;;;;;24.73;12.23;;;;;;;34.78;42.35;100998.63;6127625;23;20440;-71
2022/05/05 04:45:24;;;;;;;23.00;12.97;;;;;;;34.71;42.54;100998.94;6127964;23;20377;-70
2022/05/05 04:47:50;;;;;;;22.07;13.43;;;;;;;34.69;42.57;100999.25;6127908;23;20384;-70
2022/05/05 04:50:17;;;;;;;19.17;11.30;;;;;;;34.69;42.87;101010.03;6127926;23;20385;-72
2022/05/05 04:52:43;;;;;;;18.47;12.50;;;;;;;34.44;43.31;101010.97;6127974;23;20436;-72
2022/05/05 04:55:10;;;;;;;18.60;12.83;;;;;;;34.43;43.40;101012.03;6127561;23;20408;-72
2022/05/05 04:57:37;;;;;;;19.43;11.87;;;;;;;34.37;43.72;101012.31;6127390;23;20384;-72
2022/05/05 05:00:06;;;;;;;20.03;11.67;;;;;;;34.19;44.06;101011.06;6127566;23;20405;-72
2022/05/05 05:02:32;;;;;;;18.23;12.83;;;;;;;34.09;44.52;101013.81;6127803;23;20441;-72
2022/05/05 05:04:58;;;;;;;14.50;11.00;;;;;;;33.89;44.99;101023.56;6127888;23;20841;-72
2022/05/05 05:07:24;;;;;;;20.50;11.27;;;;;;;34.05;44.55;101021.63;6127572;23;20401;-74
2022/05/05 05:09:50;;;;;;;23.53;14.03;;;;;;;33.88;44.96;101027.31;6129157;23;20389;-72
2022/05/05 05:12:16;;;;;;;21.70;14.73;;;;;;;34.11;44.52;101019.72;6129494;23;20393;-72
2022/05/05 05:14:42;;;;;;;19.63;12.50;;;;;;;34.40;44.14;101025.25;6129526;23;20464;-72
2022/05/05 05:17:08;;;;;;;19.80;11.07;;;;;;;34.37;44.10;101031.97;6129479;23;20413;-72
2022/05/05 05:19:34;;;;;;;21.10;11.87;;;;;;;34.41;44.07;101030.34;6155677;23;20358;-72
2022/05/05 05:22:00;;;;;;;19.10;11.70;;;;;;;34.26;44.00;101033.13;6155428;23;20420;-72
2022/05/05 05:24:26;;;;;;;14.63;11.57;;;;;;;34.08;44.64;101041.81;6128889;23;20381;-72
2022/05/05 05:26:52;;;;;;;16.13;11.60;;;;;;;33.96;45.04;101046.72;6129080;23;20385;-72
2022/05/05 05:29:18;;;;;;;13.47;10.80;;;;;;;33.80;45.54;101040.53;6129427;23;20381;-72
2022/05/05 05:31:44;;;;;;;30.50;12.73;;;;;;;33.88;45.38;101050.72;6129055;23;20373;-72
2022/05/05 05:34:10;;;;;;;14.90;9.70;;;;;;;34.02;45.30;101054.50;6129048;23;20846;-73
2022/05/05 05:36:36;;;;;;;16.53;11.60;;;;;;;34.14;44.93;101054.19;6129200;23;20846;-72
2022/05/05 05:39:03;;;;;;;18.93;10.40;;;;;;;34.27;44.86;101058.97;6129100;23;20380;-72
2022/05/05 05:41:29;;;;;;;16.43;11.93;;;;;;;34.32;45.00;101058.16;6129136;23;20427;-72
2022/05/05 05:43:55;;;;;;;18.27;12.63;;;;;;;34.44;44.50;101055.97;6129043;23;20404;-72
2022/05/05 05:46:21;;;;;;;17.70;12.10;;;;;;;34.62;44.37;101055.34;6129240;23;20400;-74
2022/05/05 05:48:47;;;;;;;20.30;13.97;;;;;;;34.62;43.92;101062.56;6129194;23;20432;-72
2022/05/05 05:51:13;;;;;;;19.80;12.57;;;;;;;34.34;44.66;101067.56;6129173;23;20726;-71
2022/05/05 05:53:40;;;;;;;15.33;11.10;;;;;;;34.29;44.86;101067.56;6129328;23;20377;-72
2022/05/05 05:56:06;;;;;;;19.57;13.90;;;;;;;34.21;44.95;101079.72;6154814;23;20404;-71
2022/05/05 05:58:35;;;;;;;21.63;12.50;;;;;;;34.19;45.49;101073.81;6155245;23;20392;-72
2022/05/05 06:01:01;;;;;;;14.63;12.50;;;;;;;34.24;45.19;101072.16;6128529;23;20961;-73
2022/05/05 06:06:12;;;;;;;22.97;15.13;;;;;;;34.27;45.40;101075.13;6155249;23;20931;-72
2022/05/05 06:08:38;;;;;;;21.53;13.87;;;;;;;34.20;45.10;101080.81;6128929;23;20385;-74
2022/05/05 06:11:04;;;;;;;19.23;14.90;;;;;;;34.59;44.64;101080.13;6154826;23;20357;-75
2022/05/05 06:13:30;;;;;;;28.73;16.53;;;;;;;34.71;44.52;101085.19;6128814;23;20439;-76
2022/05/05 06:15:57;;;;;;;24.77;15.50;;;;;;;34.28;45.10;101098.28;6128073;23;20389;-71
2022/05/05 06:18:23;;;;;;;21.20;11.80;;;;;;;34.34;44.91;101097.19;6154630;23;20358;-73
2022/05/05 06:20:49;;;;;;;21.30;15.00;;;;;;;34.24;45.37;101107.97;6127467;23;20868;-74
2022/05/05 06:23:16;;;;;;;21.03;11.87;;;;;;;34.16;45.24;101108.53;6127947;23;20381;-72
2022/05/05 06:25:42;;;;;;;24.83;12.10;;;;;;;34.26;45.24;101119.28;6153836;23;20368;-71
2022/05/05 06:28:08;;;;;;;15.13;10.47;;;;;;;34.31;45.16;101123.84;6128162;23;20464;-72
2022/05/05 06:30:34;;;;;;;16.17;12.47;;;;;;;34.28;45.12;101125.19;6128800;23;20374;-71
2022/05/05 06:33:00;;;;;;;27.97;11.63;;;;;;;34.82;44.05;101120.97;6128493;23;20389;-71
2022/05/05 06:35:26;;;;;;;16.70;12.17;;;;;;;34.84;43.84;101132.25;6129023;23;20385;-73
2022/05/05 06:37:52;;;;;;;19.83;11.00;;;;;;;34.89;43.60;101133.03;6128244;23;20416;-70
2022/05/05 06:40:18;;;;;;;21.37;11.33;;;;;;;34.96;43.97;101138.16;6127579;23;20385;-72
2022/05/05 06:42:44;;;;;;;19.23;12.80;;;;;;;34.78;44.13;101133.38;6127374;23;20425;-70
2022/05/05 06:45:11;;;;;;;27.53;14.33;;;;;;;34.68;44.28;101137.75;6154540;23;20357;-72
2022/05/05 06:47:37;;;;;;;20.87;14.77;;;;;;;34.90;44.06;101139.22;6128544;23;20421;-71
2022/05/05 06:50:04;;;;;;;29.73;15.30;;;;;;;35.15;43.47;101135.59;6154796;23;20362;-71
2022/05/05 06:52:30;;;;;;;19.40;11.97;;;;;;;35.34;43.51;101141.13;6128699;23;20384;-71
2022/05/05 06:54:56;;;;;;;20.50;13.50;;;;;;;35.49;42.87;101144.56;6128568;23;20788;-71
2022/05/05 06:57:23;;;;;;;21.50;11.33;;;;;;;35.45;42.74;101140.81;6127357;23;20917;-71
2022/05/05 06:59:49;;;;;;;22.27;13.97;;;;;;;35.46;42.70;101145.09;6127532;23;20495;-70
2022/05/05 07:02:15;;;;;;;19.60;11.80;;;;;;;35.56;42.26;101149.63;6154595;23;20467;-71
2022/05/05 07:07:25;;;;;;;18.30;11.50;;;;;;;35.52;42.68;101151.28;6153973;23;20403;-71
2022/05/05 07:12:36;;;;;;;19.70;13.13;;;;;;;35.68;42.71;101155.47;6154661;23;20829;-71
2022/05/05 07:15:02;;;;;;;26.27;14.93;;;;;;;35.68;42.37;101152.75;6128111;23;20841;-73
2022/05/05 07:17:28;;;;;;;16.53;11.90;;;;;;;35.80;42.20;101171.28;6128065;23;20385;-70
2022/05/05 07:19:54;;;;;;;18.03;12.27;;;;;;;35.87;42.22;101154.75;6128922;23;20393;-70
2022/05/05 07:22:21;;;;;;;20.50;14.33;;;;;;;35.98;41.87;101161.69;6127701;23;20460;-72
2022/05/05 07:24:47;;;;;;;14.57;10.73;;;;;;;35.86;42.04;101166.63;6128155;23;20594;-69
2022/05/05 07:27:13;;;;;;;16.70;10.87;;;;;;;35.88;42.13;101167.97;6127659;23;20385;-69
2022/05/05 07:29:41;;;;;;;18.20;10.67;;;;;;;35.93;42.17;101176.03;6127269;23;20451;-69
2022/05/05 07:32:08;;;;;;;16.53;11.90;;;;;;;35.73;42.34;101173.50;6127974;23;20416;-70
2022/05/05 07:34:34;;;;;;;14.97;9.53;;;;;;;35.85;42.36;101173.94;6128409;23;20447;-75
2022/05/05 07:37:01;;;;;;;19.00;11.43;;;;;;;35.76;42.56;101173.72;6127546;23;21191;-70
2022/05/05 07:39:27;;;;;;;16.63;12.90;;;;;;;35.76;42.67;101170.22;6127843;23;20737;-71
2022/05/05 07:41:53;;;;;;;20.17;11.23;;;;;;;35.83;42.41;101173.41;6127908;23;20495;-71
2022/05/05 07:44:19;;;;;;;14.83;10.07;;;;;;;35.73;42.46;101177.00;6127624;23;20385;-71
2022/05/05 07:46:45;;;;;;;19.00;11.23;;;;;;;35.70;42.38;101180.25;6153994;23;20436;-71
2022/05/05 07:49:12;;;;;;;18.90;11.27;;;;;;;35.90;42.27;101179.25;6127684;23;20789;-80
2022/05/05 07:51:38;;;;;;;18.20;10.30;;;;;;;35.91;42.71;101185.47;6128245;23;20381;-72
2022/05/05 07:56:51;;;;;;;20.23;13.57;;;;;;;36.10;42.29;101189.13;6153484;23;20352;-70
2022/05/05 07:59:19;;;;;;;16.03;10.37;;;;;;;36.03;42.20;101194.03;6103381;23;20734;-71
2022/05/05 08:01:45;;;;;;;23.07;12.30;;;;;;;36.13;41.85;101199.31;6153555;23;20473;-72
2022/05/05 08:04:11;;;;;;;24.20;13.10;;;;;;;36.18;42.18;101191.19;6127693;23;20377;-72
2022/05/05 08:06:37;;;;;;;19.20;11.20;;;;;;;36.13;42.16;101193.94;6127008;23;20780;-72
2022/05/05 08:09:03;;;;;;;20.53;13.00;;;;;;;36.30;41.73;101191.59;6127637;23;20435;-71
2022/05/05 08:11:29;;;;;;;21.77;16.67;;;;;;;36.33;42.42;101198.31;6127612;23;20396;-70
2022/05/05 08:13:56;;;;;;;25.10;14.97;;;;;;;36.01;42.40;101202.41;6127234;23;20423;-72
2022/05/05 08:16:22;;;;;;;27.43;15.87;;;;;;;35.73;42.92;101201.31;6127248;23;20381;-72
2022/05/05 08:18:49;;;;;;;22.77;14.70;;;;;;;35.67;43.70;101201.63;6152831;23;20437;-72
2022/05/05 08:21:15;;;;;;;21.87;15.23;;;;;;;35.37;43.68;101202.63;6101863;23;20429;-74
2022/05/05 08:23:41;;;;;;;19.00;12.30;;;;;;;35.64;44.14;101205.69;6126405;23;20381;-74
2022/05/05 08:28:51;;;;;;;25.77;13.40;;;;;;;35.99;42.78;101209.19;6154191;23;20404;-74
2022/05/05 08:31:18;;;;;;;23.90;14.30;;;;;;;36.25;42.54;101207.84;6127813;23;20381;-76
2022/05/05 08:33:44;;;;;;;20.90;13.63;;;;;;;36.01;43.15;101220.50;6128179;23;20377;-75
2022/05/05 08:36:10;;;;;;;21.00;16.30;;;;;;;36.03;43.13;101218.31;6153355;23;20365;-75
2022/05/05 08:38:37;;;;;;;17.47;14.50;;;;;;;36.01;42.76;101220.50;6153420;23;20354;-76
2022/05/05 08:41:04;;;;;;;20.70;14.63;;;;;;;35.93;42.79;101218.44;6127708;23;20381;-73
2022/05/05 08:43:30;;;;;;;23.30;13.60;;;;;;;36.13;42.79;101222.84;6128454;23;20376;-74
2022/05/05 08:45:59;;;;;;;19.93;13.93;;;;;;;36.26;42.74;101214.06;6129923;23;20392;-74
2022/05/05 08:48:27;;;;;;;23.67;15.37;;;;;;;36.44;42.00;101221.44;6129673;23;20381;-74
2022/05/05 08:50:58;;;;;;;16.33;11.83;;;;;;;36.50;41.88;101228.41;6129886;23;20385;-76
2022/05/05 08:53:35;;;;;;;18.37;11.83;;;;;;;36.65;42.05;101234.72;6129756;23;20443;-79
2022/05/05 08:56:05;;;;;;;23.13;14.43;;;;;;;36.64;41.67;101233.91;6129684;23;20463;-74
2022/05/05 08:58:32;;;;;;;16.10;10.40;;;;;;;36.74;41.36;101239.22;6128408;23;20401;-75
2022/05/05 09:00:58;;;;;;;18.03;11.80;;;;;;;36.70;41.25;101238.16;6129382;23;20440;-74
2022/05/05 09:03:25;;;;;;;17.80;11.30;;;;;;;36.73;41.06;101236.81;6129258;23;20396;-76
2022/05/05 09:05:55;;;;;;;19.40;11.77;;;;;;;36.67;41.29;101232.56;6129375;23;20995;-73
2022/05/05 09:08:27;;;;;;;17.67;11.87;;;;;;;36.85;41.13;101235.28;6129413;23;20381;-72
2022/05/05 09:10:55;;;;;;;19.93;11.17;;;;;;;36.93;41.34;101241.19;6129658;23;20377;-74
2022/05/05 09:13:34;;;;;;;17.90;11.93;;;;;;;37.04;41.49;101227.25;6129328;23;20732;-72
2022/05/05 09:16:03;;;;;;;22.40;13.00;;;;;;;37.12;41.35;101228.47;6154880;23;20364;-74
2022/05/05 09:18:32;;;;;;;18.80;13.47;;;;;;;37.06;41.61;101222.34;6128097;23;20872;-74
2022/05/05 09:21:06;;;;;;;21.63;14.00;;;;;;;37.07;41.17;101223.13;6128520;23;20393;-75
2022/05/05 09:26:35;;;;;;;20.47;13.30;;;;;;;37.10;41.75;101220.66;6155696;23;20356;-72
2022/05/05 09:29:22;;;;;;;18.43;13.73;;;;;;;37.11;41.06;101216.84;6155660;23;20350;-71
2022/05/05 09:31:49;;;;;;;18.67;13.83;;;;;;;37.12;41.31;101212.25;6129376;23;20908;-73
2022/05/05 09:34:19;;;;;;;20.70;12.87;;;;;;;37.22;41.78;101209.41;6154809;23;20381;-72
2022/05/05 09:36:47;;;;;;;17.90;12.50;;;;;;;37.31;41.57;101198.72;6155615;23;20436;-72
2022/05/05 09:39:13;;;;;;;24.07;14.00;;;;;;;37.34;41.52;101201.69;6154982;23;20357;-71
2022/05/05 09:41:47;;;;;;;24.40;15.00;;;;;;;37.22;41.07;101195.09;6128054;23;20785;-71
2022/05/05 09:44:16;;;;;;;20.53;13.23;;;;;;;37.09;41.83;101189.31;6128536;23;20456;-69
2022/05/05 09:46:45;;;;;;;17.27;11.20;;;;;;;37.29;41.17;101181.97;6128710;23;20385;-73
2022/05/05 09:49:17;;;;;;;21.50;11.00;;;;;;;37.11;42.32;101192.50;6128071;23;20381;-71
2022/05/05 09:57:39;;;;;;;18.67;9.40;;;;;;;37.31;41.95;101186.00;6104596;23;20951;-71
2022/05/05 09:57:44;;;;;;;26.33;11.00;;;;;;;37.40;41.24;101188.88;6154858;23;20743;-83
2022/05/05 10:05:48;;;;;;;16.27;10.50;;;;;;;37.64;40.82;101172.53;6154127;23;20400;-69
2022/05/05 10:08:15;;;;;;;12.17;9.50;;;;;;;37.67;41.18;101182.75;6128400;23;20354;-70
2022/05/05 10:10:43;;;;;;;12.77;8.17;;;;;;;37.60;41.00;101174.22;6104142;23;20373;-71
2022/05/05 10:13:14;;;;;;;20.13;8.67;;;;;;;37.48;41.09;101173.88;6103484;23;20416;-71
2022/05/05 10:15:40;;;;;;;18.80;10.50;;;;;;;37.50;41.79;101175.16;6128924;23;20385;-72
2022/05/05 10:18:08;;;;;;;20.43;11.37;;;;;;;37.65;40.94;101174.13;6128855;23;20416;-72
2022/05/05 10:20:35;;;;;;;16.20;9.67;;;;;;;37.68;40.69;101170.81;6105175;23;20435;-71
2022/05/05 10:23:11;;;;;;;17.70;9.67;;;;;;;37.79;40.43;101166.03;6104347;23;20378;-72
2022/05/05 10:25:39;;;;;;;18.63;9.80;;;;;;;37.85;40.68;101160.25;6128065;23;20389;-72
2022/05/05 10:28:38;;;;;;;17.40;10.17;;;;;;;37.57;41.18;101162.09;6154056;23;20350;-71
2022/05/05 10:31:04;;;;;;;16.33;9.33;;;;;;;37.73;40.93;101170.72;6117842;23;20517;-75
2022/05/05 10:34:09;;;;;;;18.87;11.60;;;;;;;37.85;41.03;101159.47;6128048;23;20396;-71
2022/05/05 10:36:36;;;;;;;17.57;10.47;;;;;;;37.94;41.01;101159.56;6137524;23;20381;-71
2022/05/05 10:39:21;;;;;;;14.13;9.70;;;;;;;37.96;40.95;101152.75;6128593;23;20385;-72
2022/05/05 10:41:48;;;;;;;30.20;11.03;;;;;;;37.99;41.16;101159.47;6128686;23;20736;-72
2022/05/05 10:44:18;;;;;;;15.53;9.77;;;;;;;37.95;40.67;101155.78;6128590;23;20412;-71
2022/05/05 10:46:53;;;;;;;14.67;10.37;;;;;;;37.87;40.66;101154.53;6128623;23;20381;-72
2022/05/05 10:49:32;;;;;;;19.30;11.97;;;;;;;37.77;41.01;101152.81;6128673;23;20445;-70
2022/05/05 10:52:16;;;;;;;17.50;12.23;;;;;;;37.79;41.18;101157.91;6154588;23;20476;-72
2022/05/05 10:54:45;;;;;;;19.37;10.43;;;;;;;37.95;41.04;101156.56;6129133;23;20389;-71
2022/05/05 10:57:41;;;;;;;19.43;11.70;;;;;;;38.08;41.07;101154.97;6128417;23;20913;-72
2022/05/05 11:00:10;;;;;;;21.97;11.93;;;;;;;37.96;41.31;101152.75;6115895;23;20731;-71
2022/05/05 11:02:38;;;;;;;15.77;10.57;;;;;;;37.77;41.26;101152.00;6128182;23;20385;-70
2022/05/05 11:05:27;;;;;;;25.47;13.90;;;;;;;37.84;41.39;101155.16;6128234;23;20393;-70
2022/05/05 11:08:17;;;;;;;15.70;10.77;;;;;;;37.66;41.91;101148.66;6128221;23;20380;-71
2022/05/05 11:11:39;;;;;;;15.03;9.60;;;;;;;37.85;41.23;101149.44;6140403;23;20389;-70
2022/05/05 11:13:40;;;;;;;23.37;12.83;;;;;;;37.93;41.43;101142.50;6154030;23;20385;-70
2022/05/05 11:22:24;;;;;;;21.90;11.80;;;;;;;38.08;41.19;101127.88;6154505;23;20400;-70
2022/05/05 11:24:52;;;;;;;13.40;9.60;;;;;;;38.07;41.61;101123.59;6128250;23;20388;-71
2022/05/05 11:27:20;;;;;;;14.93;9.23;;;;;;;38.16;41.04;101119.84;6128409;23;20905;-71
2022/05/05 11:29:57;;;;;;;20.80;10.33;;;;;;;38.20;41.19;101114.66;6128114;23;20381;-70
2022/05/05 11:32:33;;;;;;;18.67;11.53;;;;;;;37.97;41.63;101113.72;6154288;23;20904;-70
2022/05/05 11:35:00;;;;;;;20.10;11.37;;;;;;;38.09;41.76;101107.81;6128228;23;20381;-71
2022/05/05 11:37:28;;;;;;;22.93;11.93;;;;;;;38.15;41.26;101112.84;6128239;23;20413;-72
2022/05/05 11:39:55;;;;;;;24.70;11.33;;;;;;;38.12;41.33;101116.16;6154392;23;20368;-70
2022/05/05 11:42:21;;;;;;;18.80;10.90;;;;;;;38.10;41.60;101099.38;6128106;23;20373;-71
2022/05/05 11:44:48;;;;;;;19.33;10.50;;;;;;;38.17;41.41;101099.78;6154197;23;20915;-70
2022/05/05 11:47:22;;;;;;;20.57;10.90;;;;;;;38.17;41.94;101101.69;6154359;23;20752;-70
2022/05/05 11:49:51;;;;;;;20.37;11.80;;;;;;;38.12;41.58;101094.50;6127809;23;20940;-70
2022/05/05 11:52:25;;;;;;;12.67;10.87;;;;;;;38.05;41.46;101094.06;6154075;23;20409;-71
2022/05/05 11:54:55;;;;;;;18.63;11.63;;;;;;;38.13;41.76;101089.88;6127652;23;20380;-71
2022/05/05 11:57:35;;;;;;;15.80;10.47;;;;;;;38.24;41.79;101088.53;6154296;23;20362;-72